• Join FlightAware (Why Join?)
  • Login
  • US Flag 
12:30AM EST


 

Airport Tracker/Info


-or-


 

Live Flight TrackerFlight Track Log ✈ N143DE ✈ 09-May-2013 ✈ KAPF - KGPT

Flight Track Log - Related Links

Times and Time Zones

All times are in EDT time to prevent confusion due to time zone crossing. See the N143DE flight status page for this flight to view local times or setup timezone preferences in your user account.

Time Position Orientation Groundspeed Altitude Reporting Facility
EDT Latitude Longitude Course Direction KTS MPH feet Rate Location/Type
12:30PM 26.2589 -81.7722 354° North 184 212 5,100  Level Miami Center
12:31PM 26.3108 -81.7767 356° North 179 206 7,000 1,800 Climbing Miami Center
12:32PM 26.3608 -81.7786 358° North 179 206 8,800 1,800 Climbing Miami Center
12:33PM 26.4106 -81.7900 348° North 179 206 10,600 1,740 Climbing Miami Center
12:34PM 26.4727 -81.8049 354° North  Level FlightAware Approximate
12:34PM 26.4564 -81.7989 350° North 179 206 12,300  Level Miami Center
12:35PM 26.5373 -81.8130 354° North  Level FlightAware Approximate
12:35PM 26.5019 -81.8078 350° North 179 206 13,600  Level Miami Center
12:36PM 26.6020 -81.8206 354° North  Level FlightAware Approximate
12:36PM 26.5497 -81.8167 351° North 179 206 14,900  Level Miami Center
12:37PM 26.6017 -81.8236 353° North 179 206 16,100 1,140 Climbing Miami Center
12:38PM 26.6514 -81.8325 351° North 179 206 17,200 1,080 Climbing Miami Center
12:39PM 26.7053 -81.8394 353° North 179 206 18,300 1,080 Climbing Miami Center
12:40PM 26.7553 -81.8417 358° North 179 206 19,400 960 Climbing Miami Center
12:41PM 26.8072 -81.8508 351° North 179 206 20,300 840 Climbing Miami Center
12:42PM 26.8592 -81.8578 353° North 179 206 21,100 840 Climbing Miami Center
12:43PM 26.9133 -81.8647 353° North 179 206 22,000 900 Climbing Miami Center
12:44PM 26.9653 -81.8717 353° North 179 206 22,900 840 Climbing Miami Center
12:45PM 27.0172 -81.8786 353° North 179 206 23,700 720 Climbing Miami Center
12:46PM 27.0689 -81.8878 351° North 179 206 24,400 660 Climbing Miami Center
12:47PM 27.1272 -81.8925 356° North 184 212 25,100 600 Climbing Miami Center
12:48PM 27.1814 -81.8997 353° North 184 212 25,700 480 Climbing Miami Center
12:49PM 27.2333 -81.9067 353° North 184 212 26,100 240 Climbing Miami Center
12:50PM 27.2850 -81.9158 351° North 200 230 26,200  Climbing Miami Center
12:51PM 27.3494 -81.9256 352° North 212 244 26,200 -60 Level Miami Center
12:52PM 27.4203 -81.9311 356° North 230 265 26,100 -60 Descending Miami Center
12:53PM 27.4844 -81.9408 352° North 235 270 26,100  Level Miami Center
12:54PM 27.5428 -81.9483 353° North 235 270 26,100  Level Miami Center
12:55PM 27.6092 -81.9606 351° North 235 270 26,100  Level Miami Center
12:56PM 27.6819 -81.9683 355° North 235 270 26,100  Level Miami Center
12:57PM 27.7483 -81.9761 354° North 235 270 26,100  Level Miami Center
12:58PM 27.8147 -81.9886 351° North 235 270 26,100  Level Miami Center
12:59PM 27.8833 -81.9964 354° North 235 270 26,100  Level Miami Center
01:00PM 27.9214 -82.0047 349° North 235 270 26,100  Level Jacksonville Center
01:01PM 27.9864 -82.0158 351° North 235 270 26,100  Level Jacksonville Center
01:02PM 28.0408 -82.0600 324° Northwest 235 270 26,200  Climbing Jacksonville Center
01:03PM 28.0933 -82.1067 322° Northwest 235 270 26,200  Level Jacksonville Center
01:04PM 28.1458 -82.1533 322° Northwest 235 270 26,200  Level Jacksonville Center
01:05PM 28.1961 -82.2003 321° Northwest 235 270 26,200  Level Jacksonville Center
01:06PM 28.2483 -82.2447 323° Northwest 235 270 26,200  Level Jacksonville Center
01:07PM 28.2989 -82.2914 321° Northwest 235 270 26,200  Level Jacksonville Center
01:08PM 28.3492 -82.3383 321° Northwest 235 270 26,200  Level Jacksonville Center
01:09PM 28.4014 -82.3828 323° Northwest 235 270 26,200  Level Jacksonville Center
01:10PM 28.4517 -82.4297 321° Northwest 235 270 26,200  Level Jacksonville Center
01:11PM 28.5019 -82.4769 320° Northwest 235 270 26,200  Level Jacksonville Center
01:12PM 28.5542 -82.5217 323° Northwest 235 270 26,200  Level Jacksonville Center
01:13PM 28.6044 -82.5664 322° Northwest 235 270 26,200  Level Jacksonville Center
01:14PM 28.6567 -82.6158 320° Northwest 235 270 26,200  Level Jacksonville Center
01:15PM 28.7089 -82.6583 324° Northwest 235 270 26,200  Level Jacksonville Center
01:16PM 28.7592 -82.7056 321° Northwest 235 270 26,200  Level Jacksonville Center
01:17PM 28.8094 -82.7528 321° Northwest 235 270 26,200 -60 Level Jacksonville Center
01:18PM 28.8636 -82.8000 323° Northwest 240 276 26,100 -60 Descending Jacksonville Center
01:19PM 28.9136 -82.8475 320° Northwest 240 276 26,100  Level Jacksonville Center
01:20PM 28.9658 -82.8925 323° Northwest 240 276 26,100  Level Jacksonville Center
01:21PM 29.0222 -82.9447 321° Northwest 235 270 26,100  Level Jacksonville Center
01:22PM 29.0722 -82.9925 320° Northwest 235 270 26,200  Climbing Jacksonville Center
01:23PM 29.1244 -83.0375 323° Northwest 235 270 26,100  Descending Jacksonville Center
01:24PM 29.1744 -83.0875 319° Northwest 235 270 26,200  Climbing Jacksonville Center
01:25PM 29.2267 -83.1328 323° Northwest 235 270 26,200  Level Jacksonville Center
01:26PM 29.2767 -83.1806 320° Northwest 235 270 26,200  Level Jacksonville Center
01:27PM 29.3267 -83.2261 322° Northwest 235 270 26,200  Level Jacksonville Center
01:28PM 29.3786 -83.2764 320° Northwest 235 270 26,200  Level Jacksonville Center
01:29PM 29.4308 -83.3242 321° Northwest 235 270 26,200  Level Jacksonville Center
01:30PM 29.4828 -83.3719 321° Northwest 235 270 26,200  Level Jacksonville Center
01:31PM 29.5347 -83.4178 322° Northwest 235 270 26,200  Level Jacksonville Center
01:32PM 29.5867 -83.4658 321° Northwest 235 270 26,200  Level Jacksonville Center
01:33PM 29.6386 -83.5139 321° Northwest 235 270 26,200  Level Jacksonville Center
01:34PM 29.6906 -83.5619 321° Northwest 235 270 26,200  Level Jacksonville Center
01:35PM 29.7364 -83.6125 316° Northwest 235 270 26,200  Level Jacksonville Center
01:36PM 29.7608 -83.6822 292° West 230 265 26,200 -60 Level Jacksonville Center
01:37PM 29.7856 -83.7494 293° West 230 265 26,100  Descending Jacksonville Center
01:38PM 29.8122 -83.8189 294° West 235 270 26,200  Climbing Jacksonville Center
01:39PM 29.8367 -83.8864 293° West 235 270 26,200  Level Jacksonville Center
01:40PM 29.8633 -83.9561 294° West 235 270 26,200 -60 Level Jacksonville Center
01:41PM 29.8858 -84.0233 291° West 230 265 26,100  Descending Jacksonville Center
01:42PM 29.9122 -84.0906 294° West 230 265 26,200  Climbing Jacksonville Center
01:43PM 29.9367 -84.1606 292° West 230 265 26,200  Level Jacksonville Center
01:44PM 29.9589 -84.2208 293° West 235 270 26,200  Level Jacksonville Center
01:45PM 29.9833 -84.2906 292° West 235 270 26,200  Level Jacksonville Center
01:46PM 30.0097 -84.3606 294° West 235 270 26,200  Level Jacksonville Center
01:47PM 30.0317 -84.4281 291° West 230 265 26,200  Level Jacksonville Center
01:48PM 30.0581 -84.4933 295° West 230 265 26,200  Level Jacksonville Center
01:49PM 30.0822 -84.5608 292° West 230 265 26,200  Level Jacksonville Center
01:50PM 30.1086 -84.6261 295° West 230 265 26,200  Level Jacksonville Center
01:51PM 30.1286 -84.6914 290° West 230 265 26,200  Level Jacksonville Center
01:52PM 30.1525 -84.7614 292° West 230 265 26,200  Level Jacksonville Center
01:53PM 30.1789 -84.8269 295° West 230 265 26,200  Level Jacksonville Center
01:54PM 30.2008 -84.8922 291° West 230 265 26,200  Level Jacksonville Center
01:55PM 30.2269 -84.9575 295° West 230 265 26,200  Level Jacksonville Center
01:56PM 30.2486 -85.0278 290° West 230 265 26,200  Level Jacksonville Center
01:57PM 30.2767 -85.0933 296° West 230 265 26,200  Level Jacksonville Center
01:58PM 30.2986 -85.1614 290° West 230 265 26,200  Level Jacksonville Center
01:59PM 30.3222 -85.2292 292° West 230 265 26,200  Level Jacksonville Center
02:00PM 30.3461 -85.2972 292° West 230 265 26,200  Level Jacksonville Center
02:01PM 30.3719 -85.3653 294° West 230 265 26,200  Level Jacksonville Center
02:02PM 30.3956 -85.4333 292° West 230 265 26,200  Level Jacksonville Center
02:03PM 30.4153 -85.5011 289° West 230 265 26,200  Level Jacksonville Center
02:04PM 30.4158 -85.5736 271° West 230 265 26,200  Level Jacksonville Center
02:05PM 30.4142 -85.6481 269° West 230 265 26,200  Level Jacksonville Center
02:06PM 30.4167 -85.7278 272° West 230 265 26,200  Level Jacksonville Center
02:07PM 30.4192 -85.8000 272° West 230 265 26,200  Level Jacksonville Center
02:08PM 30.4175 -85.8747 269° West 230 265 26,200  Level Jacksonville Center
02:09PM 30.4178 -85.9444 270° West 230 265 26,200  Level Jacksonville Center
02:10PM 30.4203 -86.0192 272° West 230 265 26,200  Level Jacksonville Center
02:11PM 30.4183 -86.0914 268° West 230 265 26,200  Level Jacksonville Center
02:12PM 30.4208 -86.1639 272° West 235 270 26,200  Level Jacksonville Center
02:13PM 30.4211 -86.2336 270° West 235 270 26,200  Level Jacksonville Center
02:14PM 30.4211 -86.3058 270° West 235 270 26,200  Level Jacksonville Center
02:15PM 30.4236 -86.3733 272° West 230 265 26,200  Level Jacksonville Center
02:16PM 30.4236 -86.4433 270° West 230 265 26,200  Level Jacksonville Center
02:17PM 30.4239 -86.5156 270° West 230 265 26,200  Level Jacksonville Center
02:18PM 30.4239 -86.5853 270° West 225 259 26,200  Level Jacksonville Center
02:19PM 30.4239 -86.6553 270° West 225 259 26,200  Level Jacksonville Center
02:20PM 30.4261 -86.7253 272° West 220 253 26,200  Level Jacksonville Center
02:21PM 30.4239 -86.7972 268° West 220 253 26,200  Level Jacksonville Center
02:22PM 30.4239 -86.8647 270° West 215 247 26,200  Level Jacksonville Center
02:23PM 30.4236 -86.9394 270° West 220 253 26,200  Level Jacksonville Center
02:24PM 30.4275 -87.0117 274° West 220 253 26,200  Level Jacksonville Center
02:25PM 30.4272 -87.0817 270° West 220 253 26,200  Level Jacksonville Center
02:26PM 30.4250 -87.1539 268° West 225 259 26,200  Level Jacksonville Center
02:28PM 30.4264 -87.2614 271° West 220 253 26,200  Level Houston Center
02:29PM 30.4258 -87.3333 270° West 222 255 26,200  Level Houston Center
02:30PM 30.4261 -87.4039 270° West 219 252 26,200  Level Houston Center
02:31PM 30.4247 -87.4753 269° West 221 254 26,200  Level Houston Center
02:32PM 30.4256 -87.5597 271° West 220 253 26,200 -300 Level Houston Center
02:33PM 30.4244 -87.6286 269° West 216 249 25,700 -720 Descending Houston Center
02:34PM 30.4256 -87.7092 271° West 238 274 24,800 -780 Descending Houston Center
02:35PM 30.4253 -87.7908 270° West 250 288 24,200 -360 Descending Houston Center
02:36PM 30.4244 -87.8667 269° West 239 275 24,100 -60 Descending Houston Center
02:37PM 30.4219 -87.9353 268° West 219 252 24,100 -420 Level Houston Center
02:38PM 30.4208 -88.0144 269° West 208 239 23,300 -1,440 Descending Houston Center
02:39PM 30.4217 -88.0967 271° West 242 278 21,200 -2,040 Descending Houston Center
02:40PM 30.4197 -88.1867 269° West 275 316 19,100 -2,040 Descending Houston Center
02:41PM 30.4183 -88.2731 269° West 273 314 17,000 -2,280 Descending Houston Center
02:42PM 30.4194 -88.3603 271° West 273 314 14,500 -2,400 Descending Houston Center
02:43PM 30.4189 -88.4453 270° West 267 307 12,000 -2,580 Descending Houston Center
02:44PM 30.4214 -88.5425 272° West 257 296 9,200 -2,400 Descending Houston Center
02:45PM 30.4325 -88.6197 279° West 246 283 7,100 -2,040 Descending Houston Center
02:46PM 30.4433 -88.6919 280° West 232 267 5,100 -1,740 Descending Houston Center
02:47PM 30.4569 -88.7617 283° West 225 259 3,600 -1,020 Descending Houston Center
02:48PM 30.4722 -88.8236 286° West 207 238 3,000 -300 Descending Houston Center
02:49PM 30.4808 -88.8819 280° West 192 221 3,000 -240 Level Houston Center
02:50PM 30.4742 -88.9542 264° West 198 228 2,500 -480 Descending Houston Center
02:51PM 30.4636 -89.0153 259° West 195 224 2,000 -600 Descending Houston Center
02:52PM 30.4597 -89.0608 264° West 152 175 1,300 -480 Descending Houston Center
02:53PM 30.4369 -89.0961 233° Southwest 148 170 1,100 -240 Descending Houston Center
02:55PM 30.4073 -89.0701 145° Southeast  Level Estimated
03:02PM 30.4073 -89.0701 270° West  Level Estimated
03:03PM 30.4073 -89.0701 270° West  Level Estimated